createdAt,value
2023-01-08T00:01:59.737Z,4.69
2023-01-08T00:06:56.521Z,4.73
2023-01-08T00:11:53.352Z,4.45
2023-01-08T00:16:51.373Z,4.75
2023-01-08T00:21:48.163Z,4.80
2023-01-08T00:26:44.903Z,4.75
2023-01-08T00:31:41.743Z,4.36
2023-01-08T00:36:39.236Z,4.17
2023-01-08T00:41:36.076Z,4.33
2023-01-08T00:46:32.884Z,4.24
2023-01-08T00:51:29.754Z,4.46
2023-01-08T00:56:27.167Z,4.37
2023-01-08T01:01:24.156Z,3.89
2023-01-08T01:06:21.541Z,3.81
2023-01-08T01:11:21.019Z,4.09
2023-01-08T01:16:18.847Z,4.08
2023-01-08T01:21:22.385Z,3.98
2023-01-08T01:26:20.941Z,4.14
2023-01-08T01:31:19.457Z,3.90
2023-01-08T01:36:17.970Z,3.20
2023-01-08T01:41:23.247Z,2.71
2023-01-08T01:46:28.059Z,2.67
2023-01-08T01:51:31.225Z,2.83
2023-01-08T01:56:28.987Z,2.55
2023-01-08T02:01:27.292Z,2.73
2023-01-08T02:06:35.083Z,2.87
2023-01-08T02:11:42.782Z,3.53
2023-01-08T02:16:46.369Z,3.33
2023-01-08T02:21:53.509Z,2.73
2023-01-08T02:26:55.388Z,3.27
2023-01-08T02:31:52.494Z,3.16
2023-01-08T02:36:51.286Z,2.69
2023-01-08T02:41:57.152Z,2.72
2023-01-08T02:46:57.224Z,2.39
2023-01-08T02:51:56.998Z,2.26
2023-01-08T02:56:59.202Z,2.88
2023-01-08T03:01:56.881Z,2.86
2023-01-08T03:06:53.916Z,2.87
2023-01-08T03:11:58.092Z,2.72
2023-01-08T03:17:00.447Z,3.03
2023-01-08T03:21:58.249Z,3.02
2023-01-08T03:26:59.347Z,2.72
2023-01-08T03:32:02.911Z,2.77
2023-01-08T03:37:04.401Z,2.74
2023-01-08T03:42:07.657Z,2.51
2023-01-08T03:47:06.661Z,2.18
2023-01-08T03:52:03.643Z,2.45
2023-01-08T03:57:01.218Z,2.62
2023-01-08T04:01:58.137Z,2.50
2023-01-08T04:06:55.018Z,2.36
2023-01-08T04:11:51.997Z,2.08
2023-01-08T04:16:49.715Z,1.59
2023-01-08T04:21:46.640Z,1.82
2023-01-08T04:26:43.518Z,1.92
2023-01-08T04:31:40.509Z,2.51
2023-01-08T04:36:38.139Z,2.70
2023-01-08T04:41:34.971Z,2.78
2023-01-08T04:46:31.811Z,3.00
2023-01-08T04:51:28.673Z,2.98
2023-01-08T04:56:26.315Z,2.96
2023-01-08T05:01:25.421Z,3.17
2023-01-08T05:06:22.397Z,2.87
2023-01-08T05:11:19.366Z,2.65
2023-01-08T05:16:17.391Z,2.34
2023-01-08T05:21:14.765Z,1.65
2023-01-08T05:26:11.662Z,1.74
2023-01-08T05:31:08.560Z,1.79
2023-01-08T05:36:07.713Z,1.55
2023-01-08T05:41:05.487Z,1.84
2023-01-08T05:46:03.577Z,1.84
2023-01-08T05:51:00.660Z,1.88
2023-01-08T05:56:02.370Z,1.48
2023-01-08T06:01:04.523Z,1.96
2023-01-08T06:06:03.260Z,1.72
2023-01-08T06:11:01.296Z,1.61
2023-01-08T06:15:58.835Z,1.42
2023-01-08T06:20:55.955Z,1.43
2023-01-08T06:25:53.722Z,1.34
2023-01-08T06:30:52.029Z,1.26
2023-01-08T06:35:49.185Z,1.50
2023-01-08T06:40:46.223Z,1.73
2023-01-08T06:45:43.184Z,1.99
2023-01-08T06:50:40.847Z,2.26
2023-01-08T06:55:40.258Z,2.61
2023-01-08T07:00:38.343Z,2.59
2023-01-08T07:05:36.044Z,2.53
2023-01-08T07:10:35.592Z,2.44
2023-01-08T07:15:32.386Z,2.63
2023-01-08T07:20:30.204Z,2.65
2023-01-08T07:25:27.060Z,2.79
2023-01-08T07:30:30.036Z,2.63
2023-01-08T07:35:27.907Z,2.35
2023-01-08T07:40:24.797Z,2.47
2023-01-08T07:45:21.848Z,3.03
2023-01-08T07:50:20.122Z,2.64
2023-01-08T07:55:16.956Z,2.79
2023-01-08T08:00:14.714Z,2.73
2023-01-08T08:05:11.560Z,2.77
2023-01-08T08:10:11.327Z,2.81
2023-01-08T08:15:09.557Z,2.66
2023-01-08T08:20:07.601Z,2.68
2023-01-08T08:25:05.212Z,2.53
2023-01-08T08:30:03.604Z,2.99
2023-01-08T08:35:00.643Z,3.16
2023-01-08T08:39:57.452Z,3.32
2023-01-08T08:44:54.474Z,3.46
2023-01-08T08:49:52.063Z,3.64
2023-01-08T08:54:48.871Z,3.31
2023-01-08T08:59:45.799Z,3.68
2023-01-08T09:04:42.919Z,4.04
2023-01-08T09:09:41.437Z,3.93
2023-01-08T09:14:38.419Z,4.44
2023-01-08T09:19:35.359Z,4.76
2023-01-08T09:24:32.612Z,4.60
2023-01-08T09:29:30.178Z,4.70
2023-01-08T09:34:27.115Z,5.33
2023-01-08T09:39:24.090Z,5.34
2023-01-08T09:44:26.075Z,5.42
2023-01-08T09:49:28.961Z,5.49
2023-01-08T09:54:27.086Z,5.43
2023-01-08T09:59:24.142Z,5.49
2023-01-08T10:04:25.671Z,5.60
2023-01-08T10:09:26.822Z,5.57
2023-01-08T10:14:26.053Z,5.88
2023-01-08T10:19:28.933Z,6.04
2023-01-08T10:24:33.930Z,5.90
2023-01-08T10:29:33.046Z,6.23
2023-01-08T10:34:52.065Z,5.90
2023-01-08T10:39:53.281Z,6.32
2023-01-08T10:45:01.935Z,6.39
2023-01-08T10:50:01.204Z,6.61
2023-01-08T10:54:58.330Z,6.61
2023-01-08T10:59:55.925Z,6.85
2023-01-08T11:04:53.017Z,6.86
2023-01-08T11:09:53.226Z,6.77
2023-01-08T11:14:51.730Z,7.11
2023-01-08T11:19:48.585Z,7.52
2023-01-08T11:24:46.408Z,7.50
2023-01-08T11:29:47.253Z,8.10
2023-01-08T11:34:51.212Z,8.14
2023-01-08T11:39:48.395Z,8.52
2023-01-08T11:44:57.970Z,8.72
2023-01-08T11:50:09.821Z,8.66
2023-01-08T11:55:19.895Z,9.05
2023-01-08T12:00:34.569Z,9.34
2023-01-08T12:05:40.342Z,9.69
2023-01-08T12:10:55.372Z,9.75
2023-01-08T12:16:07.109Z,9.71
2023-01-08T12:21:13.429Z,9.72
2023-01-08T12:26:19.637Z,9.58
2023-01-08T12:31:44.309Z,9.72
2023-01-08T12:36:48.755Z,9.55
2023-01-08T12:41:48.141Z,9.86
2023-01-08T12:46:45.988Z,9.80
2023-01-08T12:51:58.729Z,9.79
2023-01-08T12:57:06.573Z,9.87
2023-01-08T13:02:21.358Z,9.62
2023-01-08T13:07:21.412Z,9.64
2023-01-08T13:12:34.142Z,9.39
2023-01-08T13:17:32.315Z,9.54
2023-01-08T13:22:31.758Z,9.42
2023-01-08T13:27:32.127Z,9.46
2023-01-08T13:32:41.906Z,9.27
2023-01-08T13:37:38.853Z,9.58
2023-01-08T13:42:41.807Z,9.53
2023-01-08T13:47:46.080Z,9.33
2023-01-08T13:52:45.866Z,9.47
2023-01-08T13:57:46.886Z,9.42
2023-01-08T14:02:50.523Z,9.28
2023-01-08T14:07:48.532Z,9.20
2023-01-08T14:12:47.118Z,9.29
2023-01-08T14:17:45.747Z,9.38
2023-01-08T14:22:43.621Z,9.16
2023-01-08T14:27:41.451Z,9.19
2023-01-08T14:32:43.598Z,9.27
2023-01-08T14:37:42.088Z,9.12
2023-01-08T14:42:42.052Z,9.25
2023-01-08T14:47:45.273Z,9.17
2023-01-08T14:52:44.436Z,9.10
2023-01-08T14:57:46.704Z,8.54
2023-01-08T15:02:47.419Z,8.67
2023-01-08T15:07:59.880Z,8.59
2023-01-08T15:13:00.291Z,8.66
2023-01-08T15:18:01.980Z,8.59
2023-01-08T15:23:04.854Z,8.29
2023-01-08T15:28:05.440Z,8.30
2023-01-08T15:33:08.542Z,7.68
2023-01-08T15:38:20.305Z,7.74
2023-01-08T15:43:18.827Z,7.59
2023-01-08T15:48:16.261Z,7.84
2023-01-08T15:53:17.859Z,7.60
2023-01-08T15:58:16.078Z,7.20
2023-01-08T16:03:14.408Z,7.54
2023-01-08T16:08:11.776Z,7.32
2023-01-08T16:13:11.994Z,7.11
2023-01-08T16:18:09.184Z,7.22
2023-01-08T16:23:06.506Z,6.95
2023-01-08T16:28:04.406Z,6.58
2023-01-08T16:33:02.811Z,6.53
2023-01-08T16:38:00.189Z,6.73
2023-01-08T16:43:00.664Z,6.46
2023-01-08T16:47:58.133Z,6.51
2023-01-08T16:52:55.641Z,6.52
2023-01-08T16:57:55.360Z,6.39
2023-01-08T17:02:52.302Z,6.11
2023-01-08T17:07:51.408Z,6.30
2023-01-08T17:12:50.018Z,6.07
2023-01-08T17:17:47.231Z,5.93
2023-01-08T17:22:44.088Z,5.53
2023-01-08T17:27:41.567Z,5.88
2023-01-08T17:32:40.117Z,5.55
2023-01-08T17:37:37.249Z,5.36
2023-01-08T17:42:34.087Z,5.17
2023-01-08T17:47:31.262Z,5.33
2023-01-08T17:52:30.497Z,5.54
2023-01-08T17:57:30.860Z,5.10
2023-01-08T18:02:30.887Z,5.37
2023-01-08T18:07:28.834Z,5.24
2023-01-08T18:12:25.720Z,5.12
2023-01-08T18:17:23.047Z,5.01
2023-01-08T18:22:19.842Z,5.22
2023-01-08T18:27:17.738Z,4.80
2023-01-08T18:32:15.440Z,5.14
2023-01-08T18:37:13.181Z,5.02
2023-01-08T18:42:29.736Z,5.06
2023-01-08T18:47:28.247Z,4.71
2023-01-08T18:52:26.094Z,5.04
2023-01-08T18:57:23.536Z,5.07
2023-01-08T19:02:24.174Z,4.99
2023-01-08T19:07:21.954Z,4.81
2023-01-08T19:12:19.697Z,4.74
2023-01-08T19:17:16.621Z,4.76
2023-01-08T19:22:14.063Z,4.73
2023-01-08T19:27:11.860Z,4.73
2023-01-08T19:32:09.283Z,4.73
2023-01-08T19:37:09.003Z,4.73
2023-01-08T19:42:24.257Z,4.72
2023-01-08T19:47:23.016Z,4.55
2023-01-08T19:52:20.144Z,4.58
2023-01-08T19:57:21.833Z,4.30
2023-01-08T20:02:21.145Z,4.40
2023-01-08T20:07:18.942Z,4.52
2023-01-08T20:12:16.245Z,4.20
2023-01-08T20:17:14.090Z,4.51
2023-01-08T20:22:11.021Z,4.16
2023-01-08T20:27:10.165Z,4.47
2023-01-08T20:32:07.556Z,3.80
2023-01-08T20:37:05.845Z,4.24
2023-01-08T20:42:04.556Z,3.87
2023-01-08T20:47:02.636Z,3.65
2023-01-08T20:52:00.535Z,4.23
2023-01-08T20:56:58.169Z,3.88
2023-01-08T21:01:56.413Z,3.99
2023-01-08T21:06:54.162Z,4.33
2023-01-08T21:11:53.469Z,4.23
2023-01-08T21:16:50.292Z,4.13
2023-01-08T21:21:47.197Z,4.06
2023-01-08T21:26:45.884Z,3.78
2023-01-08T21:31:42.912Z,3.49
2023-01-08T21:36:39.981Z,4.09
2023-01-08T21:41:55.214Z,3.78
2023-01-08T21:46:54.903Z,3.87
2023-01-08T21:52:09.883Z,4.03
2023-01-08T21:57:07.453Z,3.79
2023-01-08T22:02:06.108Z,3.84
2023-01-08T22:07:03.080Z,3.49
2023-01-08T22:11:59.972Z,2.96
2023-01-08T22:16:56.847Z,3.28
2023-01-08T22:21:54.287Z,3.47
2023-01-08T22:26:51.158Z,3.56
2023-01-08T22:31:48.086Z,3.56
2023-01-08T22:36:49.752Z,3.37
2023-01-08T22:41:47.267Z,3.49
2023-01-08T22:46:44.144Z,3.53
2023-01-08T22:51:41.931Z,3.53
2023-01-08T22:56:38.991Z,3.42
2023-01-08T23:01:37.149Z,4.00
2023-01-08T23:06:34.136Z,3.93
2023-01-08T23:11:32.976Z,3.84
2023-01-08T23:16:29.879Z,3.68
2023-01-08T23:21:27.963Z,3.73
2023-01-08T23:26:27.277Z,3.52
2023-01-08T23:31:26.116Z,3.54
2023-01-08T23:36:23.319Z,3.66
2023-01-08T23:41:22.811Z,3.64
2023-01-08T23:46:19.565Z,3.74
2023-01-08T23:51:16.916Z,3.84
2023-01-08T23:56:14.008Z,3.89
